Time;durP1;ratioP1;P1;durP2;ratioP2;P2;SDS_P1;SDS_P2;PMS_P1;PMS_P2;Temp;Humidity;BMP_temperature;BMP_pressure;BME280_temperature;BME280_humidity;BME280_pressure;Samples;Min_cycle;Max_cycle;Signal;HPM_P1;HPM_P2
2022/11/10 00:02:07;;;;;;;35.78;25.30;;;;;;;5.44;100.00;100514.05;1728816;81;21046;-71
2022/11/10 00:04:52;;;;;;;35.33;25.48;;;;;;;5.46;100.00;100514.69;1758867;80;21232;-73
2022/11/10 00:07:37;;;;;;;37.50;26.77;;;;;;;5.50;100.00;100508.77;1777661;80;21100;-75
2022/11/10 00:10:24;;;;;;;35.90;25.92;;;;;;;5.52;100.00;100512.04;1785281;80;21014;-77
2022/11/10 00:13:09;;;;;;;41.77;25.80;;;;;;;5.53;100.00;100513.69;1784987;80;21051;-81
2022/11/10 00:19:07;;;;;;;37.25;25.55;;;;;;;5.51;100.00;100517.09;1762710;80;21342;-71
2022/11/10 00:21:52;;;;;;;40.67;25.05;;;;;;;5.53;100.00;100516.87;1784888;80;21619;-69
2022/11/10 00:24:37;;;;;;;38.13;24.55;;;;;;;5.51;100.00;100512.26;1783033;80;21535;-70
2022/11/10 00:27:23;;;;;;;33.02;24.60;;;;;;;5.49;100.00;100510.28;1771267;80;20986;-70
2022/11/10 00:30:09;;;;;;;35.75;25.20;;;;;;;5.48;100.00;100509.96;1758941;80;21177;-70
2022/11/10 00:32:55;;;;;;;34.25;25.15;;;;;;;5.49;100.00;100511.62;1785051;80;21127;-70
2022/11/10 00:35:40;;;;;;;38.70;25.77;;;;;;;5.47;100.00;100510.47;1760660;80;21520;-72
2022/11/10 00:38:25;;;;;;;34.03;25.08;;;;;;;5.48;100.00;100503.29;1754910;81;21036;-72
2022/11/10 00:41:10;;;;;;;32.38;24.12;;;;;;;5.46;100.00;100501.34;1754301;80;21463;-74
2022/11/10 00:43:55;;;;;;;30.45;23.40;;;;;;;5.44;100.00;100499.38;1755761;80;21030;-72
2022/11/10 00:46:41;;;;;;;37.28;27.13;;;;;;;5.46;100.00;100499.51;1754128;80;21689;-69
2022/11/10 00:49:27;;;;;;;34.92;26.10;;;;;;;5.46;100.00;100500.84;1753830;80;21010;-75
2022/11/10 00:52:12;;;;;;;37.45;25.68;;;;;;;5.42;100.00;100497.44;1754752;80;20967;-78
2022/11/10 00:54:57;;;;;;;32.55;22.10;;;;;;;5.37;100.00;100494.53;1754150;80;20951;-79
2022/11/10 00:57:42;;;;;;;34.78;24.90;;;;;;;5.32;100.00;100495.63;1754312;80;21543;-77
2022/11/10 01:00:27;;;;;;;33.18;22.32;;;;;;;5.26;100.00;100484.72;1755139;80;21531;-82
2022/11/10 01:03:14;;;;;;;32.35;23.10;;;;;;;5.27;100.00;100489.55;1763293;80;20963;-77
2022/11/10 01:06:11;;;;;;;32.93;25.60;;;;;;;5.27;100.00;100485.55;1784008;80;21550;-80
2022/11/10 01:08:56;;;;;;;34.85;25.48;;;;;;;5.22;100.00;100484.80;1745603;81;21098;-76
2022/11/10 01:11:41;;;;;;;37.67;28.62;;;;;;;5.19;100.00;100483.84;1765973;80;21482;-80
2022/11/10 01:14:26;;;;;;;32.20;24.45;;;;;;;5.16;100.00;100486.08;1784363;80;21781;-72
2022/11/10 01:17:11;;;;;;;32.73;23.12;;;;;;;5.12;100.00;100485.66;1758031;80;20958;-85
2022/11/10 01:19:56;;;;;;;34.20;24.45;;;;;;;5.10;100.00;100481.52;1785007;80;21339;-75
2022/11/10 01:22:42;;;;;;;30.30;23.87;;;;;;;5.09;100.00;100480.69;1784485;80;20995;-76
2022/11/10 01:25:28;;;;;;;42.00;26.40;;;;;;;5.08;100.00;100472.41;1783012;80;21160;-69
2022/11/10 01:28:13;;;;;;;38.08;27.75;;;;;;;5.08;100.00;100473.73;1776257;80;22224;-71
2022/11/10 01:30:59;;;;;;;31.20;23.95;;;;;;;5.04;100.00;100468.45;1762761;80;21022;-69
2022/11/10 01:33:45;;;;;;;32.42;24.87;;;;;;;5.00;100.00;100471.70;1751854;80;21088;-69
2022/11/10 01:36:31;;;;;;;34.27;25.90;;;;;;;4.95;100.00;100468.80;1771444;80;21049;-70
2022/11/10 01:39:18;;;;;;;28.83;22.73;;;;;;;4.93;100.00;100465.01;1774565;80;21042;-70
2022/11/10 01:42:03;;;;;;;31.97;23.77;;;;;;;4.95;100.00;100472.79;1729203;80;21137;-68
2022/11/10 01:45:27;;;;;;;32.08;24.52;;;;;;;4.92;100.00;100473.19;1748268;80;21599;-68
2022/11/10 01:48:26;;;;;;;32.63;22.75;;;;;;;4.90;100.00;100481.88;1774695;80;21069;-78
2022/11/10 01:51:25;;;;;;;34.33;25.05;;;;;;;4.91;100.00;100479.03;1778942;80;21000;-80
2022/11/10 01:54:16;;;;;;;35.35;24.95;;;;;;;4.98;100.00;100476.42;1785040;80;21014;-76
2022/11/10 01:57:04;;;;;;;34.38;25.02;;;;;;;5.03;100.00;100477.48;1768878;80;21693;-75
2022/11/10 01:59:49;;;;;;;31.00;23.62;;;;;;;5.04;100.00;100476.95;1754042;80;20970;-75
2022/11/10 02:02:42;;;;;;;31.73;23.50;;;;;;;5.04;100.00;100476.45;1753978;81;21045;-75
2022/11/10 02:05:27;;;;;;;32.67;22.10;;;;;;;5.04;100.00;100475.11;1754716;80;20982;-74
2022/11/10 02:08:14;;;;;;;33.20;24.32;;;;;;;5.05;100.00;100480.77;1784442;78;21014;-70
2022/11/10 02:10:58;;;;;;;32.23;24.05;;;;;;;5.05;100.00;100483.94;1790921;80;21969;-72
2022/11/10 02:13:44;;;;;;;33.85;22.87;;;;;;;5.02;100.00;100477.67;1791208;80;20959;-80
2022/11/10 02:16:29;;;;;;;30.48;23.87;;;;;;;5.03;100.00;100480.66;1771868;80;20927;-78
2022/11/10 02:19:21;;;;;;;33.85;23.98;;;;;;;5.03;100.00;100482.00;1770099;80;21015;-74
2022/11/10 02:22:06;;;;;;;30.75;22.75;;;;;;;5.01;100.00;100482.18;1791310;80;21562;-75
2022/11/10 02:24:51;;;;;;;35.30;24.75;;;;;;;5.03;100.00;100480.16;1790182;80;21037;-71
2022/11/10 02:27:36;;;;;;;31.73;23.32;;;;;;;5.10;100.00;100485.52;1774643;80;20974;-72
2022/11/10 02:30:21;;;;;;;28.83;21.70;;;;;;;5.10;100.00;100479.68;1760195;81;21088;-76
2022/11/10 02:33:06;;;;;;;35.85;26.70;;;;;;;5.09;100.00;100481.20;1760067;81;21700;-75
2022/11/10 02:35:50;;;;;;;37.25;24.37;;;;;;;5.11;100.00;100478.67;1775484;80;21098;-75
2022/11/10 02:38:36;;;;;;;40.17;28.85;;;;;;;5.15;100.00;100483.09;1763623;80;21311;-76
2022/11/10 02:41:21;;;;;;;38.75;27.05;;;;;;;5.17;100.00;100479.23;1760168;81;21573;-75
2022/11/10 02:44:06;;;;;;;43.50;28.42;;;;;;;5.15;100.00;100485.76;1760251;81;21006;-76
2022/11/10 02:46:51;;;;;;;28.75;22.45;;;;;;;5.15;100.00;100485.25;1786502;80;21042;-73
2022/11/10 02:49:37;;;;;;;29.82;22.93;;;;;;;5.18;100.00;100490.18;1773342;80;21086;-74
2022/11/10 02:52:22;;;;;;;34.58;25.52;;;;;;;5.13;100.00;100493.14;1760125;81;21307;-74
2022/11/10 02:55:08;;;;;;;32.67;24.63;;;;;;;5.12;100.00;100492.31;1768330;80;21022;-74
2022/11/10 02:57:52;;;;;;;31.23;22.52;;;;;;;5.11;100.00;100484.00;1760394;80;21002;-73
2022/11/10 03:00:37;;;;;;;34.50;27.10;;;;;;;5.16;100.00;100478.91;1760377;81;21053;-73
2022/11/10 03:03:22;;;;;;;33.73;25.43;;;;;;;5.15;100.00;100474.58;1760451;81;21031;-73
2022/11/10 03:06:07;;;;;;;30.25;20.75;;;;;;;5.10;100.00;100474.84;1765344;80;21544;-71
2022/11/10 03:08:53;;;;;;;30.08;21.95;;;;;;;5.08;100.00;100475.06;1791314;78;20995;-70
2022/11/10 03:11:38;;;;;;;30.23;21.15;;;;;;;5.13;100.00;100477.15;1791550;80;21001;-71
2022/11/10 03:14:23;;;;;;;31.20;23.05;;;;;;;5.13;100.00;100471.28;1790382;78;21617;-74
2022/11/10 03:17:08;;;;;;;35.40;24.98;;;;;;;5.11;100.00;100468.51;1775079;80;21015;-77
2022/11/10 03:19:54;;;;;;;31.05;24.20;;;;;;;5.03;100.00;100466.83;1791422;80;21659;-78
2022/11/10 03:22:39;;;;;;;29.02;22.62;;;;;;;5.01;100.00;100470.69;1759997;80;20982;-76
2022/11/10 03:25:24;;;;;;;30.40;22.82;;;;;;;4.93;100.00;100467.67;1765769;80;21009;-74
2022/11/10 03:28:09;;;;;;;28.87;20.90;;;;;;;4.92;100.00;100467.36;1780925;80;21085;-73
2022/11/10 03:30:54;;;;;;;30.55;21.30;;;;;;;4.99;100.00;100464.21;1761002;80;21508;-73
2022/11/10 03:33:40;;;;;;;33.13;22.45;;;;;;;4.97;100.00;100462.27;1760275;81;21090;-76
2022/11/10 03:36:25;;;;;;;30.10;22.42;;;;;;;4.99;100.00;100465.55;1770347;80;21018;-72
2022/11/10 03:39:10;;;;;;;36.05;24.43;;;;;;;4.99;100.00;100456.75;1760503;80;21069;-71
2022/11/10 03:41:55;;;;;;;28.10;21.90;;;;;;;4.95;100.00;100457.63;1776572;80;21023;-75
2022/11/10 03:44:40;;;;;;;31.73;21.90;;;;;;;4.95;100.00;100451.47;1791540;80;21098;-75
2022/11/10 03:47:25;;;;;;;31.62;22.17;;;;;;;4.94;100.00;100450.64;1779787;80;21495;-76
2022/11/10 03:50:11;;;;;;;30.37;22.40;;;;;;;4.96;100.00;100457.12;1791576;80;21519;-76
2022/11/10 03:52:56;;;;;;;29.45;21.65;;;;;;;4.99;100.00;100452.75;1790212;80;20978;-76
2022/11/10 03:55:41;;;;;;;37.05;23.20;;;;;;;4.99;100.00;100449.55;1760618;80;21006;-75
2022/11/10 03:58:26;;;;;;;28.60;22.35;;;;;;;5.03;100.00;100452.67;1779285;80;21309;-76
2022/11/10 04:01:11;;;;;;;32.75;22.48;;;;;;;5.08;100.00;100451.58;1791578;80;21143;-77
2022/11/10 04:03:56;;;;;;;33.90;22.62;;;;;;;5.09;100.00;100456.69;1760366;81;20959;-76
2022/11/10 04:09:47;;;;;;;35.98;23.67;;;;;;;5.16;100.00;100460.75;1727193;83;20999;-75
2022/11/10 04:15:42;;;;;;;28.83;22.60;;;;;;;5.22;100.00;100452.80;1755404;80;22107;-75
2022/11/10 04:18:28;;;;;;;31.15;24.18;;;;;;;5.30;100.00;100452.31;1767378;80;20951;-75
2022/11/10 04:21:13;;;;;;;34.18;22.70;;;;;;;5.34;100.00;100443.72;1788892;80;21474;-76
2022/11/10 04:24:00;;;;;;;33.95;23.87;;;;;;;5.32;100.00;100448.95;1788745;80;21024;-75
2022/11/10 04:26:46;;;;;;;27.95;21.02;;;;;;;5.36;100.00;100449.69;1744606;80;21444;-76
2022/11/10 04:29:31;;;;;;;34.15;22.25;;;;;;;5.43;100.00;100451.03;1754350;81;21214;-76
2022/11/10 04:32:16;;;;;;;32.35;22.10;;;;;;;5.48;100.00;100452.09;1733785;81;20960;-77
2022/11/10 04:35:01;;;;;;;29.72;20.72;;;;;;;5.49;100.00;100451.59;1757282;81;21039;-78
2022/11/10 04:37:46;;;;;;;32.95;22.32;;;;;;;5.54;100.00;100456.65;1782374;80;20954;-74
2022/11/10 04:40:31;;;;;;;36.38;20.90;;;;;;;5.53;100.00;100452.33;1766623;80;21078;-77
2022/11/10 04:43:16;;;;;;;35.95;24.95;;;;;;;5.53;100.00;100454.17;1778307;80;21234;-75
2022/11/10 04:46:01;;;;;;;33.88;21.82;;;;;;;5.54;100.00;100448.64;1737790;80;21015;-74
2022/11/10 04:48:48;;;;;;;30.50;22.05;;;;;;;5.56;100.00;100449.25;1753863;81;20975;-74
2022/11/10 04:51:37;;;;;;;28.67;19.70;;;;;;;5.58;100.00;100452.55;1753861;81;21006;-75
2022/11/10 04:54:22;;;;;;;33.02;22.13;;;;;;;5.59;100.00;100455.55;1753994;81;21066;-74
2022/11/10 04:57:07;;;;;;;36.40;22.85;;;;;;;5.62;100.00;100463.64;1755248;80;21067;-73
2022/11/10 04:59:55;;;;;;;34.65;21.80;;;;;;;5.61;100.00;100461.48;1755556;81;20989;-75
2022/11/10 05:02:40;;;;;;;33.95;22.42;;;;;;;5.64;100.00;100458.95;1751941;81;20978;-75
2022/11/10 05:05:25;;;;;;;33.92;22.40;;;;;;;5.72;100.00;100461.44;1752918;80;20966;-75
2022/11/10 05:08:11;;;;;;;34.15;23.62;;;;;;;5.77;100.00;100460.84;1757981;81;21007;-75
2022/11/10 05:10:56;;;;;;;33.65;24.07;;;;;;;5.80;100.00;100463.95;1760437;81;21854;-73
2022/11/10 05:13:42;;;;;;;37.23;23.27;;;;;;;5.84;100.00;100469.20;1762134;80;21050;-74
2022/11/10 05:16:28;;;;;;;31.65;21.40;;;;;;;5.92;100.00;100466.38;1785501;80;21089;-76
2022/11/10 05:19:14;;;;;;;31.12;21.80;;;;;;;5.96;100.00;100474.29;1790998;80;21113;-75
2022/11/10 05:21:59;;;;;;;28.60;19.75;;;;;;;6.02;100.00;100470.82;1791535;80;21026;-75
2022/11/10 05:24:45;;;;;;;34.43;22.75;;;;;;;6.08;100.00;100481.22;1775516;80;21134;-75
2022/11/10 05:27:30;;;;;;;29.05;22.10;;;;;;;6.09;100.00;100475.66;1760626;80;20999;-74
2022/11/10 05:30:16;;;;;;;29.87;20.50;;;;;;;6.12;100.00;100471.27;1760392;81;20935;-76
2022/11/10 05:33:02;;;;;;;25.62;19.15;;;;;;;6.18;100.00;100476.83;1763355;80;21042;-76
2022/11/10 05:35:50;;;;;;;35.08;22.42;;;;;;;6.25;100.00;100481.14;1785836;80;21034;-73
2022/11/10 05:38:35;;;;;;;27.15;21.00;;;;;;;6.26;100.00;100474.78;1783828;80;21138;-73
2022/11/10 05:41:19;;;;;;;30.43;22.35;;;;;;;6.27;100.00;100474.27;1791613;80;20990;-73
2022/11/10 05:44:05;;;;;;;30.97;20.10;;;;;;;6.31;100.00;100487.53;1790477;80;21003;-73
2022/11/10 05:46:50;;;;;;;31.68;21.15;;;;;;;6.32;100.00;100486.52;1772350;80;21520;-73
2022/11/10 05:49:35;;;;;;;35.03;22.27;;;;;;;6.33;100.00;100487.63;1761512;80;21042;-72
2022/11/10 05:52:20;;;;;;;27.32;19.48;;;;;;;6.32;100.00;100486.52;1791654;80;21023;-72
2022/11/10 05:55:07;;;;;;;27.15;19.37;;;;;;;6.33;100.00;100497.52;1790552;80;20944;-72
2022/11/10 05:57:52;;;;;;;30.12;21.45;;;;;;;6.35;100.00;100504.28;1760434;81;21119;-73
2022/11/10 06:00:39;;;;;;;33.65;21.97;;;;;;;6.37;100.00;100507.59;1761507;80;22184;-72
2022/11/10 06:03:24;;;;;;;27.90;19.85;;;;;;;6.39;100.00;100508.70;1760355;81;21546;-71
2022/11/10 06:06:09;;;;;;;34.20;20.60;;;;;;;6.36;100.00;100507.78;1779990;80;21134;-72
2022/11/10 06:08:58;;;;;;;33.55;21.50;;;;;;;6.39;100.00;100508.70;1771096;78;20991;-71
2022/11/10 06:11:43;;;;;;;31.57;21.23;;;;;;;6.43;100.00;100513.95;1754049;80;21013;-74
2022/11/10 06:14:30;;;;;;;28.67;19.90;;;;;;;6.46;100.00;100522.92;1759287;80;21010;-76
2022/11/10 06:17:17;;;;;;;27.58;19.12;;;;;;;6.44;100.00;100520.95;1782434;80;21038;-70
2022/11/10 06:20:05;;;;;;;28.57;19.82;;;;;;;6.45;100.00;100527.44;1784936;80;21543;-76
2022/11/10 06:23:08;;;;;;;29.85;21.62;;;;;;;6.47;100.00;100525.91;1739110;80;20994;-79
2022/11/10 06:25:53;;;;;;;31.85;22.30;;;;;;;6.47;100.00;100524.58;1779612;80;21070;-75
2022/11/10 06:28:38;;;;;;;34.10;21.12;;;;;;;6.52;100.00;100533.59;1778918;80;21011;-75
2022/11/10 06:31:23;;;;;;;25.72;20.48;;;;;;;6.58;100.00;100528.79;1767816;80;21039;-75
2022/11/10 10:16:21;;;;;;;20.72;16.50;;;;;;;9.21;95.19;100543.66;1760677;78;32867;-75
2022/11/10 10:19:47;;;;;;;25.17;15.95;;;;;;;9.27;94.49;100532.84;1740611;81;21061;-73
2022/11/10 10:22:55;;;;;;;23.98;15.13;;;;;;;9.37;94.28;100541.74;1741509;82;21156;-73
2022/11/10 10:25:40;;;;;;;20.48;14.65;;;;;;;9.44;93.90;100536.63;1736619;82;22130;-74
2022/11/10 10:28:37;;;;;;;17.27;13.43;;;;;;;9.52;93.06;100540.36;1712951;81;21561;-76
2022/11/10 10:31:34;;;;;;;17.25;13.45;;;;;;;9.54;92.84;100538.25;1736479;81;21050;-76
2022/11/10 10:34:23;;;;;;;20.10;15.43;;;;;;;9.54;92.71;100527.52;1720781;82;21041;-73
2022/11/10 10:37:37;;;;;;;17.65;12.88;;;;;;;9.52;92.63;100541.70;1720998;81;21248;-74
2022/11/10 10:40:23;;;;;;;24.92;14.58;;;;;;;9.51;92.81;100537.88;1741851;82;21062;-73
2022/11/10 10:43:08;;;;;;;25.08;14.18;;;;;;;9.43;93.11;100534.98;1739997;81;21528;-69
2022/11/10 10:46:09;;;;;;;18.95;13.32;;;;;;;9.41;93.51;100538.91;1702106;83;21571;-68
2022/11/10 10:49:24;;;;;;;20.23;17.02;;;;;;;9.44;93.78;100535.80;1730223;82;21154;-72
2022/11/10 10:52:13;;;;;;;22.05;13.68;;;;;;;9.43;93.77;100540.34;1703365;82;21003;-72
2022/11/10 10:55:06;;;;;;;22.90;15.95;;;;;;;9.41;93.89;100541.08;1682912;85;21039;-70
2022/11/10 10:58:04;;;;;;;21.60;15.40;;;;;;;9.29;94.46;100544.20;1631092;85;20967;-69
2022/11/10 11:00:55;;;;;;;20.02;15.13;;;;;;;9.26;94.78;100545.97;1657542;84;21613;-69
2022/11/10 11:03:46;;;;;;;26.37;17.27;;;;;;;9.30;94.99;100541.00;1702896;82;21120;-70
2022/11/10 11:06:33;;;;;;;22.22;15.95;;;;;;;9.31;94.94;100538.07;1655357;86;21280;-69
2022/11/10 11:09:27;;;;;;;26.40;16.17;;;;;;;9.27;95.15;100533.36;1711611;82;21578;-74
2022/11/10 11:12:20;;;;;;;23.05;15.35;;;;;;;9.30;95.40;100545.85;1711750;83;20998;-75
2022/11/10 11:15:28;;;;;;;26.05;16.40;;;;;;;9.31;95.35;100552.02;1707956;82;21654;-81
2022/11/10 11:18:16;;;;;;;24.27;16.00;;;;;;;9.27;95.54;100539.56;1707363;83;21019;-71
2022/11/10 11:21:19;;;;;;;27.20;16.40;;;;;;;9.19;95.88;100543.36;1707266;84;21257;-70
2022/11/10 11:24:10;;;;;;;24.13;17.97;;;;;;;9.22;96.17;100535.89;1707808;83;21006;-70
2022/11/10 11:27:00;;;;;;;22.58;16.32;;;;;;;9.17;96.36;100549.45;1705608;83;21007;-71
2022/11/10 11:29:58;;;;;;;22.95;15.78;;;;;;;9.20;96.52;100556.26;1732425;82;21562;-70
2022/11/10 11:33:18;;;;;;;31.30;20.02;;;;;;;9.18;96.63;100549.76;1726103;82;21476;-70
2022/11/10 11:36:27;;;;;;;27.80;17.75;;;;;;;9.16;96.77;100548.31;1735126;82;21158;-73
2022/11/10 11:39:31;;;;;;;19.27;14.35;;;;;;;9.17;97.07;100544.09;1711201;82;20959;-74
2022/11/10 11:42:31;;;;;;;28.97;19.13;;;;;;;9.18;97.18;100548.41;1732987;82;21104;-77
2022/11/10 11:45:21;;;;;;;24.85;18.60;;;;;;;9.22;97.24;100549.31;1734215;82;21076;-76
2022/11/10 11:48:47;;;;;;;22.98;17.50;;;;;;;9.25;97.05;100547.03;1732845;82;21548;-71
2022/11/10 11:52:03;;;;;;;22.15;16.75;;;;;;;9.22;97.03;100542.59;1730917;82;21062;-70
2022/11/10 11:55:12;;;;;;;28.20;18.95;;;;;;;9.19;97.12;100550.58;1731469;82;21134;-76
2022/11/10 11:58:12;;;;;;;31.20;15.85;;;;;;;9.24;97.34;100552.09;1729847;82;21031;-74
2022/11/10 12:01:17;;;;;;;27.30;19.87;;;;;;;9.32;97.32;100556.34;1702488;83;21083;-73
2022/11/10 12:04:28;;;;;;;25.97;20.92;;;;;;;9.36;97.04;100566.42;1736835;82;21011;-70
2022/11/10 12:07:29;;;;;;;28.98;19.90;;;;;;;9.32;96.60;100564.40;1712129;82;21095;-69
2022/11/10 12:10:28;;;;;;;26.82;19.25;;;;;;;9.25;96.81;100563.13;1731541;82;21002;-77
2022/11/10 12:13:43;;;;;;;27.93;19.55;;;;;;;9.23;97.11;100557.16;1708929;82;21011;-74
2022/11/10 12:16:30;;;;;;;28.20;21.23;;;;;;;9.28;97.29;100553.80;1733082;81;21109;-77
2022/11/10 12:19:43;;;;;;;28.47;20.12;;;;;;;9.31;97.15;100544.78;1733069;81;20992;-67
2022/11/10 12:23:01;;;;;;;33.18;19.95;;;;;;;9.34;97.05;100544.36;1733217;82;21140;-65
2022/11/10 12:26:17;;;;;;;26.37;17.40;;;;;;;9.33;96.83;100536.52;1647334;82;21058;-82
2022/11/10 12:29:39;;;;;;;25.45;19.73;;;;;;;9.31;96.69;100545.30;1734279;81;21003;-80
2022/11/10 12:33:03;;;;;;;30.62;22.00;;;;;;;9.28;96.77;100547.92;1731178;81;20994;-74
2022/11/10 12:35:48;;;;;;;24.35;19.15;;;;;;;9.17;97.06;100552.14;1693143;83;22275;-71
2022/11/10 12:39:19;;;;;;;23.18;16.97;;;;;;;9.11;97.53;100557.03;1684313;83;21175;-74
2022/11/10 12:42:04;;;;;;;24.25;16.62;;;;;;;9.13;97.82;100563.02;1731561;81;21570;-68
2022/11/10 12:45:05;;;;;;;23.85;16.67;;;;;;;9.05;97.95;100555.77;1735141;82;20991;-71
2022/11/10 12:47:51;;;;;;;20.95;16.12;;;;;;;9.07;98.17;100563.05;1721221;81;21079;-78
2022/11/10 12:51:03;;;;;;;17.30;14.73;;;;;;;9.05;98.37;100557.10;1739031;81;21097;-74
2022/11/10 12:53:48;;;;;;;25.10;15.75;;;;;;;9.03;98.60;100541.73;1735774;81;21400;-75
2022/11/10 12:56:44;;;;;;;20.85;16.73;;;;;;;9.08;98.48;100554.80;1736733;81;21605;-74
2022/11/10 12:59:41;;;;;;;20.25;15.70;;;;;;;9.05;98.26;100559.78;1726754;81;21030;-73
2022/11/10 13:02:39;;;;;;;22.20;15.48;;;;;;;9.04;98.26;100567.02;1734431;81;21057;-74
2022/11/10 13:05:30;;;;;;;19.92;13.65;;;;;;;9.03;98.23;100568.05;1720300;81;21148;-70
2022/11/10 13:08:32;;;;;;;18.73;13.90;;;;;;;9.01;98.44;100559.92;1740682;82;21299;-71
2022/11/10 13:11:35;;;;;;;23.40;12.90;;;;;;;9.00;98.66;100552.39;1734972;81;21025;-71
2022/11/10 13:14:27;;;;;;;22.35;17.73;;;;;;;8.97;98.93;100559.52;1732784;81;21581;-75
2022/11/10 13:17:30;;;;;;;20.15;15.43;;;;;;;8.96;99.05;100545.83;1717967;81;21686;-70
2022/11/10 13:20:48;;;;;;;22.13;15.55;;;;;;;8.89;99.57;100546.38;1702373;82;21115;-69
2022/11/10 13:23:49;;;;;;;22.02;14.60;;;;;;;8.95;99.79;100552.22;1708368;83;21244;-66
2022/11/10 13:26:45;;;;;;;15.90;12.75;;;;;;;8.97;99.80;100545.30;1708523;83;21042;-67
2022/11/10 13:29:46;;;;;;;19.87;14.95;;;;;;;8.99;99.81;100556.11;1711371;82;21539;-67
2022/11/10 13:32:35;;;;;;;22.52;14.50;;;;;;;9.01;99.75;100553.22;1700241;82;21011;-72
2022/11/10 13:35:41;;;;;;;19.37;15.43;;;;;;;9.04;99.53;100556.80;1712339;82;21092;-74
2022/11/10 13:38:36;;;;;;;22.48;14.40;;;;;;;9.02;99.49;100554.31;1710376;82;21162;-69
2022/11/10 13:41:26;;;;;;;22.07;13.90;;;;;;;8.96;99.55;100557.90;1737986;81;21075;-70
2022/11/10 13:44:41;;;;;;;15.48;12.28;;;;;;;8.94;99.88;100577.92;1705095;84;21045;-71
2022/11/10 13:47:49;;;;;;;17.57;14.58;;;;;;;8.96;100.00;100569.14;1722958;81;20920;-73
2022/11/10 13:50:54;;;;;;;22.35;15.75;;;;;;;8.99;100.00;100578.91;1735997;81;21061;-69
2022/11/10 13:54:03;;;;;;;21.10;16.67;;;;;;;9.01;100.00;100588.92;1736416;81;21095;-82
2022/11/10 13:57:16;;;;;;;23.12;17.20;;;;;;;9.02;100.00;100589.72;1726758;81;20996;-72
2022/11/10 14:00:11;;;;;;;25.48;16.62;;;;;;;9.01;100.00;100586.76;1718075;81;21025;-79
2022/11/10 14:03:00;;;;;;;27.25;18.30;;;;;;;9.03;100.00;100590.03;1735121;81;21464;-79
2022/11/10 14:06:02;;;;;;;22.25;16.67;;;;;;;9.05;100.00;100575.37;1735698;81;21006;-85
2022/11/10 14:09:06;;;;;;;24.90;16.52;;;;;;;9.08;100.00;100572.75;1734948;81;20946;-79
2022/11/10 14:11:58;;;;;;;25.23;16.90;;;;;;;9.06;100.00;100585.06;1744311;81;21048;-73
2022/11/10 14:14:59;;;;;;;26.45;17.98;;;;;;;9.02;100.00;100576.30;1712937;82;21565;-72
2022/11/10 14:17:52;;;;;;;24.60;17.00;;;;;;;8.95;100.00;100571.00;1733722;81;21082;-72
2022/11/10 14:20:43;;;;;;;29.18;18.05;;;;;;;8.97;100.00;100566.77;1723612;81;21113;-73
2022/11/10 18:24:09;;;;;;;42.40;30.20;;;;;;;8.52;100.00;100561.48;1789559;79;31693;-72
2022/11/10 18:26:54;;;;;;;43.05;30.40;;;;;;;8.55;100.00;100560.22;1730918;82;21018;-71
2022/11/10 18:29:41;;;;;;;36.73;27.00;;;;;;;8.60;100.00;100560.39;1729338;81;20948;-71
2022/11/10 18:32:26;;;;;;;40.12;28.98;;;;;;;8.70;100.00;100560.75;1735346;81;20944;-76
2022/11/10 18:35:11;;;;;;;46.23;32.03;;;;;;;8.75;100.00;100563.61;1732701;81;20942;-69
2022/11/10 18:37:59;;;;;;;36.08;27.10;;;;;;;8.82;100.00;100561.72;1743782;81;21479;-71
2022/11/10 18:40:45;;;;;;;39.40;26.85;;;;;;;8.92;100.00;100571.97;1743618;82;20920;-69
2022/11/10 18:43:31;;;;;;;35.78;26.17;;;;;;;9.00;100.00;100576.55;1724603;82;21909;-69
2022/11/10 18:46:17;;;;;;;37.55;27.05;;;;;;;9.08;100.00;100580.80;1720379;83;21000;-71
2022/11/10 18:49:02;;;;;;;37.53;27.37;;;;;;;9.12;100.00;100577.98;1746109;82;20994;-71
2022/11/10 18:51:46;;;;;;;37.73;26.33;;;;;;;9.21;100.00;100581.24;1719480;82;20986;-69
2022/11/10 18:54:32;;;;;;;41.05;28.30;;;;;;;9.26;100.00;100582.20;1698728;82;21114;-69
2022/11/10 18:57:17;;;;;;;39.15;26.30;;;;;;;9.29;100.00;100580.95;1730259;81;21217;-68
2022/11/10 19:00:05;;;;;;;50.00;30.43;;;;;;;9.37;100.00;100591.41;1716515;81;20986;-70
2022/11/10 19:02:50;;;;;;;42.48;27.82;;;;;;;9.44;100.00;100590.84;1715206;81;21016;-70
2022/11/10 19:05:37;;;;;;;34.95;25.60;;;;;;;9.42;100.00;100584.34;1724216;83;21034;-68
2022/11/10 19:08:22;;;;;;;40.70;24.85;;;;;;;9.42;100.00;100589.71;1722300;81;21106;-77
2022/11/10 19:11:12;;;;;;;35.88;25.35;;;;;;;9.45;100.00;100594.63;1700908;81;21140;-69
2022/11/10 19:13:59;;;;;;;28.25;22.55;;;;;;;9.46;100.00;100605.68;1692841;83;21046;-78
2022/11/10 19:16:44;;;;;;;33.85;24.50;;;;;;;9.50;100.00;100608.22;1681959;83;21083;-78
2022/11/10 19:19:32;;;;;;;35.10;25.35;;;;;;;9.52;100.00;100603.47;1667620;83;21011;-74
2022/11/10 19:22:17;;;;;;;35.88;24.18;;;;;;;9.57;100.00;100601.46;1694919;83;21092;-75
2022/11/10 19:25:03;;;;;;;35.68;23.85;;;;;;;9.59;100.00;100605.55;1691239;84;21776;-72
2022/11/10 19:27:50;;;;;;;37.50;25.50;;;;;;;9.61;100.00;100608.85;1695387;84;21034;-71
2022/11/10 19:30:35;;;;;;;39.75;27.00;;;;;;;9.62;100.00;100605.12;1695652;83;21010;-73
2022/11/10 19:33:20;;;;;;;35.00;24.45;;;;;;;9.68;100.00;100594.55;1673579;84;21090;-70
2022/11/10 19:36:12;;;;;;;36.50;25.48;;;;;;;9.76;100.00;100596.94;1684148;84;21091;-70
2022/11/10 19:38:57;;;;;;;36.08;25.43;;;;;;;9.81;100.00;100593.89;1668472;83;22041;-72
2022/11/10 19:41:43;;;;;;;38.30;23.87;;;;;;;9.81;100.00;100587.17;1695489;83;21048;-83
2022/11/10 19:44:28;;;;;;;33.30;25.15;;;;;;;9.81;100.00;100592.55;1695429;84;21011;-76
2022/11/10 19:47:13;;;;;;;33.90;25.08;;;;;;;9.83;100.00;100581.03;1695876;84;21593;-72
2022/11/10 19:49:57;;;;;;;35.78;25.15;;;;;;;9.86;100.00;100583.30;1711099;83;21098;-70
2022/11/10 19:52:43;;;;;;;40.75;25.17;;;;;;;9.85;100.00;100587.02;1725119;83;21070;-73
2022/11/10 19:55:31;;;;;;;40.85;27.82;;;;;;;9.84;100.00;100588.57;1725029;83;21064;-70
2022/11/10 19:58:16;;;;;;;32.55;23.35;;;;;;;9.85;100.00;100587.53;1667890;86;21088;-68
2022/11/10 20:01:01;;;;;;;33.73;23.07;;;;;;;9.85;100.00;100582.98;1692560;83;21106;-70
2022/11/10 20:03:46;;;;;;;34.33;23.32;;;;;;;9.84;100.00;100575.97;1696053;84;21223;-67
2022/11/10 20:06:31;;;;;;;34.30;25.10;;;;;;;9.82;100.00;100586.13;1702023;83;21203;-71
2022/11/10 20:09:16;;;;;;;33.28;23.55;;;;;;;9.81;100.00;100580.45;1702065;83;21050;-70
2022/11/10 20:12:03;;;;;;;35.63;24.25;;;;;;;9.84;100.00;100581.86;1718885;83;21581;-74
2022/11/10 20:14:50;;;;;;;32.48;24.65;;;;;;;9.82;100.00;100580.76;1702090;83;21064;-71
2022/11/10 20:17:35;;;;;;;36.00;24.47;;;;;;;9.78;100.00;100580.91;1701117;83;20991;-72
2022/11/10 20:20:20;;;;;;;34.43;24.55;;;;;;;9.75;100.00;100584.02;1695994;83;22186;-77
2022/11/10 20:23:07;;;;;;;34.98;26.25;;;;;;;9.76;100.00;100592.39;1674063;84;21035;-77
2022/11/10 20:26:05;;;;;;;41.40;29.23;;;;;;;9.76;100.00;100587.53;1675314;83;20990;-76
2022/11/10 20:28:50;;;;;;;34.43;26.65;;;;;;;9.79;100.00;100587.08;1647421;87;20963;-69
2022/11/10 20:31:37;;;;;;;60.73;44.45;;;;;;;9.79;100.00;100591.10;1655282;84;21614;-68
2022/11/10 20:34:23;;;;;;;52.48;33.70;;;;;;;9.74;100.00;100597.14;1674306;84;21145;-67
2022/11/10 20:37:09;;;;;;;44.25;30.62;;;;;;;9.71;100.00;100595.44;1687386;84;21043;-70
2022/11/10 20:39:54;;;;;;;44.93;30.97;;;;;;;9.69;100.00;100589.48;1732321;82;21037;-71
2022/11/10 20:42:42;;;;;;;43.00;29.72;;;;;;;9.68;100.00;100589.17;1728710;82;20978;-68
2022/11/10 20:45:28;;;;;;;42.58;29.07;;;;;;;9.70;100.00;100591.09;1733954;82;21090;-72
2022/11/10 20:48:14;;;;;;;46.77;31.82;;;;;;;9.73;100.00;100586.13;1732914;82;21208;-70
2022/11/10 20:51:00;;;;;;;39.73;29.92;;;;;;;9.72;100.00;100594.40;1701193;82;21104;-71